Time,TemperatureF,DewpointF,PressureIn,WindDirection,WindDirectionDegrees,WindSpeedMPH,WindSpeedGustMPH,Humidity,HourlyPrecipIn,Conditions,Clouds,dailyrainin,SolarRadiationWatts/m^2,SoftwareType,DateUTC
2013-04-30 00:12:00,32.4,16.0,31.47,NNE,14,0.0,8.0,52,0.00,,,0.00,0,weatherlink.com 1.10,2013-04-30 06:12:00,
2013-04-30 00:27:00,31.4,15.0,31.47,NE,53,1.0,3.0,52,0.00,,,0.00,0,weatherlink.com 1.10,2013-04-30 06:27:00,
2013-04-30 00:42:00,31.2,16.0,31.48,NNE,17,0.0,4.0,53,0.00,,,0.00,0,weatherlink.com 1.10,2013-04-30 06:42:00,
2013-04-30 00:57:00,31.0,15.0,31.48,NNE,17,0.0,3.0,52,0.00,,,0.00,0,weatherlink.com 1.10,2013-04-30 06:57:00,
2013-04-30 01:12:00,31.2,15.0,31.49,NE,44,2.0,4.0,52,0.00,,,0.00,0,weatherlink.com 1.10,2013-04-30 07:12:00,
2013-04-30 01:27:00,31.4,15.0,31.49,NNW,333,0.0,4.0,50,0.00,,,0.00,0,weatherlink.com 1.10,2013-04-30 07:27:00,
2013-04-30 01:42:00,31.8,14.0,31.49,SE,145,0.0,4.0,48,0.00,,,0.00,0,weatherlink.com 1.10,2013-04-30 07:42:00,
2013-04-30 01:57:00,31.2,14.0,31.50,NNE,24,1.0,4.0,49,0.00,,,0.00,0,weatherlink.com 1.10,2013-04-30 07:57:00,
2013-04-30 02:12:00,31.0,14.0,31.50,NNE,19,0.0,3.0,50,0.00,,,0.00,0,weatherlink.com 1.10,2013-04-30 08:12:00,
2013-04-30 02:27:00,30.6,14.0,31.51,NNE,19,1.0,3.0,50,0.00,,,0.00,0,weatherlink.com 1.10,2013-04-30 08:27:00,
2013-04-30 02:42:00,30.7,13.0,31.51,NNW,330,0.0,2.0,48,0.00,,,0.00,0,weatherlink.com 1.10,2013-04-30 08:42:00,
2013-04-30 02:57:00,31.7,13.0,31.50,South,180,3.0,8.0,47,0.00,,,0.00,0,weatherlink.com 1.10,2013-04-30 08:57:00,
2013-04-30 03:12:00,31.2,12.0,31.51,SSW,199,5.0,10.0,46,0.00,,,0.00,0,weatherlink.com 1.10,2013-04-30 09:12:00,
2013-04-30 03:27:00,31.6,12.0,31.52,WSW,238,0.0,5.0,45,0.00,,,0.00,0,weatherlink.com 1.10,2013-04-30 09:27:00,
2013-04-30 03:42:00,31.2,12.0,31.52,NW,318,0.0,3.0,46,0.00,,,0.00,0,weatherlink.com 1.10,2013-04-30 09:42:00,
2013-04-30 03:57:00,30.3,12.0,31.53,North,5,2.0,2.0,47,0.00,,,0.00,0,weatherlink.com 1.10,2013-04-30 09:57:00,
2013-04-30 04:12:00,30.5,12.0,31.53,North,5,0.0,2.0,47,0.00,,,0.00,0,weatherlink.com 1.10,2013-04-30 10:12:00,
2013-04-30 04:27:00,30.0,13.0,31.55,North,5,1.0,2.0,50,0.00,,,0.00,0,weatherlink.com 1.10,2013-04-30 10:27:00,
2013-04-30 04:42:00,29.8,14.0,31.55,NE,40,0.0,3.0,51,0.00,,,0.00,0,weatherlink.com 1.10,2013-04-30 10:42:00,
2013-04-30 04:57:00,29.7,13.0,31.55,NE,53,0.0,3.0,50,0.00,,,0.00,0,weatherlink.com 1.10,2013-04-30 10:57:00,
2013-04-30 05:12:00,29.9,14.0,31.55,NE,51,0.0,1.0,51,0.00,,,0.00,0,weatherlink.com 1.10,2013-04-30 11:12:00,
2013-04-30 05:27:00,29.7,13.0,31.55,SSE,167,3.0,5.0,50,0.00,,,0.00,0,weatherlink.com 1.10,2013-04-30 11:27:00,
2013-04-30 05:42:00,30.0,13.0,31.56,NNW,338,0.0,3.0,50,0.00,,,0.00,0,weatherlink.com 1.10,2013-04-30 11:42:00,
2013-04-30 05:57:00,29.8,12.0,31.56,ESE,123,0.0,4.0,48,0.00,,,0.00,0,weatherlink.com 1.10,2013-04-30 11:57:00,
2013-04-30 06:12:00,28.9,13.0,31.57,ESE,121,0.0,3.0,52,0.00,,,0.00,0,weatherlink.com 1.10,2013-04-30 12:12:00,
2013-04-30 06:28:00,28.3,14.0,31.57,ENE,61,3.0,4.0,55,0.00,,,0.00,5,weatherlink.com 1.10,2013-04-30 12:28:00,
2013-04-30 06:43:00,28.0,14.0,31.58,NE,44,2.0,4.0,56,0.00,,,0.00,12,weatherlink.com 1.10,2013-04-30 12:43:00,
2013-04-30 06:58:00,28.6,14.0,31.59,NNE,26,0.0,4.0,55,0.00,,,0.00,30,weatherlink.com 1.10,2013-04-30 12:58:00,
2013-04-30 07:13:00,28.6,14.0,31.60,NNE,24,1.0,3.0,55,0.00,,,0.00,25,weatherlink.com 1.10,2013-04-30 13:13:00,
2013-04-30 07:28:00,28.6,14.0,31.61,North,349,2.0,6.0,55,0.00,,,0.00,47,weatherlink.com 1.10,2013-04-30 13:28:00,
2013-04-30 07:43:00,29.2,15.0,31.61,NNE,21,0.0,6.0,56,0.00,,,0.00,113,weatherlink.com 1.10,2013-04-30 13:43:00,
2013-04-30 07:58:00,30.1,16.0,31.62,NNW,334,0.0,4.0,55,0.00,,,0.00,178,weatherlink.com 1.10,2013-04-30 13:58:00,
2013-04-30 08:13:00,30.6,15.0,31.63,NNW,333,5.0,9.0,53,0.00,,,0.00,155,weatherlink.com 1.10,2013-04-30 14:13:00,
2013-04-30 08:28:00,30.2,16.0,31.63,North,360,1.0,7.0,56,0.00,,,0.00,102,weatherlink.com 1.10,2013-04-30 14:28:00,
2013-04-30 08:43:00,30.5,16.0,31.64,NNW,337,6.0,8.0,54,0.00,,,0.00,151,weatherlink.com 1.10,2013-04-30 14:43:00,
2013-04-30 08:58:00,30.4,16.0,31.65,North,360,3.0,10.0,56,0.00,,,0.00,148,weatherlink.com 1.10,2013-04-30 14:58:00,
2013-04-30 09:13:00,30.7,16.0,31.65,North,355,3.0,9.0,55,0.00,,,0.00,169,weatherlink.com 1.10,2013-04-30 15:13:00,
2013-04-30 09:28:00,31.5,17.0,31.65,North,9,5.0,10.0,56,0.00,,,0.00,313,weatherlink.com 1.10,2013-04-30 15:28:00,
2013-04-30 09:43:00,32.5,17.0,31.65,WNW,296,3.0,14.0,53,0.00,,,0.00,529,weatherlink.com 1.10,2013-04-30 15:43:00,
2013-04-30 09:58:00,33.5,19.0,31.66,NNW,340,8.0,11.0,55,0.00,,,0.00,522,weatherlink.com 1.10,2013-04-30 15:58:00,
2013-04-30 10:13:00,33.1,19.0,31.66,NW,309,1.0,12.0,57,0.00,,,0.00,325,weatherlink.com 1.10,2013-04-30 16:13:00,
2013-04-30 10:28:00,33.8,19.0,31.66,NW,326,9.0,13.0,55,0.00,,,0.00,403,weatherlink.com 1.10,2013-04-30 16:28:00,
2013-04-30 10:43:00,34.2,19.0,31.66,NW,311,7.0,12.0,54,0.00,,,0.00,436,weatherlink.com 1.10,2013-04-30 16:43:00,
2013-04-30 10:58:00,34.6,18.0,31.66,WNW,297,0.0,11.0,51,0.00,,,0.00,622,weatherlink.com 1.10,2013-04-30 16:58:00,
2013-04-30 11:13:00,35.3,20.0,31.67,NNW,333,3.0,10.0,54,0.00,,,0.00,557,weatherlink.com 1.10,2013-04-30 17:13:00,
2013-04-30 11:28:00,35.7,19.0,31.66,WNW,294,5.0,10.0,50,0.00,,,0.00,717,weatherlink.com 1.10,2013-04-30 17:28:00,
2013-04-30 11:43:00,36.1,16.0,31.66,WSW,256,6.0,11.0,45,0.00,,,0.00,279,weatherlink.com 1.10,2013-04-30 17:43:00,
2013-04-30 11:58:00,36.4,15.0,31.67,WSW,255,4.0,12.0,42,0.00,,,0.00,218,weatherlink.com 1.10,2013-04-30 17:58:00,
2013-04-30 12:14:00,34.8,17.0,31.68,WSW,240,4.0,14.0,48,0.00,,,0.00,297,weatherlink.com 1.10,2013-04-30 18:14:00,
2013-04-30 12:29:00,34.4,19.0,31.69,NE,51,0.0,10.0,54,0.00,,,0.00,234,weatherlink.com 1.10,2013-04-30 18:29:00,
2013-04-30 12:44:00,-999.0,-99.9,31.69,North,-999,-999.0,-999.0,-999,0.00,,,0.00,,weatherlink.com 1.10,2013-04-30 18:44:00,
2013-04-30 12:59:00,34.7,18.0,31.69,SSW,213,2.0,10.0,51,0.00,,,0.00,879,weatherlink.com 1.10,2013-04-30 18:59:00,
2013-04-30 13:14:00,37.9,22.0,31.69,SW,223,6.0,18.0,54,0.00,,,0.00,1065,weatherlink.com 1.10,2013-04-30 19:14:00,
2013-04-30 13:29:00,37.1,19.0,31.69,South,178,8.0,11.0,48,0.00,,,0.00,1041,weatherlink.com 1.10,2013-04-30 19:29:00,
2013-04-30 13:44:00,35.7,17.0,31.70,SSW,203,7.0,12.0,46,0.00,,,0.00,216,weatherlink.com 1.10,2013-04-30 19:44:00,
2013-04-30 13:59:00,35.1,19.0,31.70,SW,230,7.0,12.0,52,0.00,,,0.00,301,weatherlink.com 1.10,2013-04-30 19:59:00,
2013-04-30 14:14:00,35.5,24.0,31.71,NNW,345,6.0,15.0,63,0.00,,,0.00,466,weatherlink.com 1.10,2013-04-30 20:14:00,
2013-04-30 14:29:00,32.9,23.0,31.73,North,9,10.0,17.0,68,0.00,,,0.00,287,weatherlink.com 1.10,2013-04-30 20:29:00,
2013-04-30 14:44:00,30.7,24.0,31.75,North,350,6.0,14.0,75,0.00,,,0.00,200,weatherlink.com 1.10,2013-04-30 20:44:00,
2013-04-30 14:59:00,30.5,24.0,31.77,NW,317,12.0,16.0,78,0.00,,,0.00,63,weatherlink.com 1.10,2013-04-30 20:59:00,
2013-04-30 15:14:00,27.6,25.0,31.77,NNE,27,8.0,13.0,88,0.00,,,0.00,105,weatherlink.com 1.10,2013-04-30 21:14:00,
2013-04-30 15:29:00,27.8,25.0,31.76,NE,44,6.0,10.0,88,0.00,,,0.00,148,weatherlink.com 1.10,2013-04-30 21:29:00,
2013-04-30 15:44:00,29.6,24.0,31.76,ENE,62,4.0,10.0,80,0.00,,,0.00,302,weatherlink.com 1.10,2013-04-30 21:44:00,
2013-04-30 15:59:00,31.7,22.0,31.76,ESE,106,2.0,9.0,68,0.00,,,0.00,355,weatherlink.com 1.10,2013-04-30 21:59:00,
2013-04-30 16:14:00,34.1,22.0,31.77,NNW,328,4.0,5.0,61,0.00,,,0.00,323,weatherlink.com 1.10,2013-04-30 22:14:00,
2013-04-30 16:29:00,33.9,24.0,31.79,WNW,284,4.0,9.0,68,0.00,,,0.00,132,weatherlink.com 1.10,2013-04-30 22:29:00,
2013-04-30 16:44:00,32.7,24.0,31.80,West,262,2.0,7.0,70,0.00,,,0.00,120,weatherlink.com 1.10,2013-04-30 22:44:00,
2013-04-30 16:59:00,32.6,26.0,31.80,North,360,5.0,10.0,77,0.01,,,0.01,264,weatherlink.com 1.10,2013-04-30 22:59:00,
2013-04-30 17:14:00,31.8,25.0,31.81,North,11,4.0,8.0,75,0.01,,,0.01,105,weatherlink.com 1.10,2013-04-30 23:14:00,
2013-04-30 17:29:00,28.8,25.0,31.83,North,10,9.0,14.0,86,0.01,,,0.01,113,weatherlink.com 1.10,2013-04-30 23:29:00,
2013-04-30 17:44:00,28.5,26.0,31.83,NNE,19,6.0,13.0,90,0.01,,,0.01,153,weatherlink.com 1.10,2013-04-30 23:44:00,
2013-04-30 17:59:00,29.5,27.0,31.82,NE,42,8.0,10.0,91,0.00,,,0.01,441,weatherlink.com 1.10,2013-04-30 23:59:00,
2013-04-30 18:14:00,30.1,27.0,31.83,NNE,23,6.0,12.0,88,0.00,,,0.01,227,weatherlink.com 1.10,2013-05-01 00:14:00,
2013-04-30 18:29:00,30.6,26.0,31.84,North,5,3.0,7.0,82,0.00,,,0.01,118,weatherlink.com 1.10,2013-05-01 00:29:00,
2013-04-30 18:44:00,30.6,26.0,31.84,NW,319,0.0,2.0,83,0.00,,,0.01,70,weatherlink.com 1.10,2013-05-01 00:44:00,
2013-04-30 18:59:00,29.5,26.0,31.85,NNE,21,1.0,10.0,85,0.00,,,0.01,60,weatherlink.com 1.10,2013-05-01 00:59:00,
2013-04-30 19:14:00,29.6,25.0,31.85,NNE,32,0.0,4.0,84,0.00,,,0.01,70,weatherlink.com 1.10,2013-05-01 01:14:00,
2013-04-30 19:29:00,30.0,25.0,31.86,NNE,32,0.0,1.0,82,0.00,,,0.01,56,weatherlink.com 1.10,2013-05-01 01:29:00,
2013-04-30 19:44:00,29.8,26.0,31.87,NNE,14,2.0,4.0,85,0.00,,,0.01,18,weatherlink.com 1.10,2013-05-01 01:44:00,
2013-04-30 20:00:00,28.5,26.0,31.89,NNE,30,6.0,16.0,89,0.00,,,0.01,0,weatherlink.com 1.10,2013-05-01 02:00:00,
2013-04-30 20:15:00,27.5,25.0,31.90,NE,44,8.0,16.0,91,0.00,,,0.01,5,weatherlink.com 1.10,2013-05-01 02:15:00,
2013-04-30 20:30:00,27.1,25.0,31.91,North,10,9.0,12.0,91,0.00,,,0.01,0,weatherlink.com 1.10,2013-05-01 02:30:00,
2013-04-30 20:45:00,27.4,25.0,31.92,ENE,63,2.0,8.0,91,0.00,,,0.01,0,weatherlink.com 1.10,2013-05-01 02:45:00,
2013-04-30 21:00:00,27.8,26.0,31.93,ENE,72,0.0,6.0,91,0.00,,,0.01,0,weatherlink.com 1.10,2013-05-01 03:00:00,
2013-04-30 21:15:00,27.8,26.0,31.94,NE,46,0.0,1.0,91,0.00,,,0.01,0,weatherlink.com 1.10,2013-05-01 03:15:00,
2013-04-30 21:30:00,27.8,26.0,31.95,ENE,71,0.0,2.0,91,0.00,,,0.01,0,weatherlink.com 1.10,2013-05-01 03:30:00,
2013-04-30 21:45:00,27.4,25.0,31.97,SSW,205,2.0,3.0,91,0.00,,,0.01,0,weatherlink.com 1.10,2013-05-01 03:45:00,
2013-04-30 22:00:00,27.6,26.0,31.97,East,100,0.0,5.0,92,0.00,,,0.01,0,weatherlink.com 1.10,2013-05-01 04:00:00,
2013-04-30 22:15:00,27.8,26.0,31.98,ESE,107,0.0,2.0,91,0.00,,,0.01,0,weatherlink.com 1.10,2013-05-01 04:15:00,
2013-04-30 22:30:00,27.5,25.0,31.98,ESE,107,0.0,0.0,91,0.00,,,0.01,0,weatherlink.com 1.10,2013-05-01 04:30:00,
2013-04-30 22:45:00,27.2,25.0,31.99,ESE,107,0.0,1.0,91,0.00,,,0.01,0,weatherlink.com 1.10,2013-05-01 04:45:00,
2013-04-30 23:00:00,26.7,25.0,32.00,ESE,107,0.0,1.0,91,0.00,,,0.01,0,weatherlink.com 1.10,2013-05-01 05:00:00,
2013-04-30 23:15:00,26.7,25.0,32.00,ESE,107,0.0,2.0,91,0.00,,,0.01,0,weatherlink.com 1.10,2013-05-01 05:15:00,
2013-04-30 23:30:00,26.8,25.0,32.01,ESE,107,0.0,0.0,92,0.00,,,0.01,0,weatherlink.com 1.10,2013-05-01 05:30:00,
2013-04-30 23:45:00,26.9,25.0,32.01,SE,133,2.0,4.0,92,0.00,,,0.01,0,weatherlink.com 1.10,2013-05-01 05:45:00,